sensor_id;sensor_type;location;lat;lon;timestamp;pressure;altitude;pressure_sealevel;temperature;humidity
26775;BME280;14362;51.902;7.626;2022-12-18T00:03:53;102322.97;;;-7.36;100.00
26775;BME280;14362;51.902;7.626;2022-12-18T00:07:55;102333.47;;;-7.41;100.00
26775;BME280;14362;51.902;7.626;2022-12-18T00:11:56;102329.41;;;-7.45;100.00
26775;BME280;14362;51.902;7.626;2022-12-18T00:16:01;102333.66;;;-7.42;100.00
26775;BME280;14362;51.902;7.626;2022-12-18T00:20:05;102326.53;;;-7.51;100.00
26775;BME280;14362;51.902;7.626;2022-12-18T00:24:07;102334.97;;;-7.54;100.00
26775;BME280;14362;51.902;7.626;2022-12-18T00:28:08;102340.41;;;-7.54;100.00
26775;BME280;14362;51.902;7.626;2022-12-18T00:32:10;102335.50;;;-7.67;100.00
26775;BME280;14362;51.902;7.626;2022-12-18T00:36:14;102326.03;;;-7.71;100.00
26775;BME280;14362;51.902;7.626;2022-12-18T00:40:17;102327.56;;;-7.76;100.00
26775;BME280;14362;51.902;7.626;2022-12-18T00:44:18;102335.16;;;-7.72;100.00
26775;BME280;14362;51.902;7.626;2022-12-18T00:48:20;102328.75;;;-7.71;100.00
26775;BME280;14362;51.902;7.626;2022-12-18T00:52:23;102329.19;;;-7.91;100.00
26775;BME280;14362;51.902;7.626;2022-12-18T00:56:24;102326.31;;;-7.98;100.00
26775;BME280;14362;51.902;7.626;2022-12-18T01:00:26;102337.00;;;-7.96;100.00
26775;BME280;14362;51.902;7.626;2022-12-18T01:04:31;102337.97;;;-8.05;100.00
26775;BME280;14362;51.902;7.626;2022-12-18T01:08:35;102335.78;;;-8.02;100.00
26775;BME280;14362;51.902;7.626;2022-12-18T01:12:36;102332.56;;;-8.05;100.00
26775;BME280;14362;51.902;7.626;2022-12-18T01:16:37;102326.00;;;-8.02;100.00
26775;BME280;14362;51.902;7.626;2022-12-18T01:20:39;102327.16;;;-8.05;100.00
26775;BME280;14362;51.902;7.626;2022-12-18T01:24:41;102322.06;;;-8.08;100.00
26775;BME280;14362;51.902;7.626;2022-12-18T01:28:43;102322.75;;;-8.06;100.00
26775;BME280;14362;51.902;7.626;2022-12-18T01:32:45;102305.84;;;-8.08;100.00
26775;BME280;14362;51.902;7.626;2022-12-18T01:36:46;102306.16;;;-8.11;100.00
26775;BME280;14362;51.902;7.626;2022-12-18T01:40:49;102317.16;;;-8.20;100.00
26775;BME280;14362;51.902;7.626;2022-12-18T01:45:02;102318.69;;;-8.26;100.00
26775;BME280;14362;51.902;7.626;2022-12-18T01:49:04;102314.00;;;-8.16;100.00
26775;BME280;14362;51.902;7.626;2022-12-18T01:53:07;102316.47;;;-8.14;100.00
26775;BME280;14362;51.902;7.626;2022-12-18T01:57:13;102329.19;;;-8.15;100.00
26775;BME280;14362;51.902;7.626;2022-12-18T02:01:15;102339.31;;;-8.25;100.00
26775;BME280;14362;51.902;7.626;2022-12-18T02:05:22;102336.41;;;-8.31;100.00
26775;BME280;14362;51.902;7.626;2022-12-18T02:09:29;102325.47;;;-8.22;100.00
26775;BME280;14362;51.902;7.626;2022-12-18T02:13:41;102325.28;;;-8.12;100.00
26775;BME280;14362;51.902;7.626;2022-12-18T02:17:50;102319.03;;;-8.21;100.00
26775;BME280;14362;51.902;7.626;2022-12-18T02:22:00;102313.28;;;-8.26;100.00
26775;BME280;14362;51.902;7.626;2022-12-18T02:26:14;102308.41;;;-8.22;100.00
26775;BME280;14362;51.902;7.626;2022-12-18T02:30:17;102302.81;;;-8.13;100.00
26775;BME280;14362;51.902;7.626;2022-12-18T02:34:22;102302.50;;;-8.18;100.00
26775;BME280;14362;51.902;7.626;2022-12-18T02:38:27;102287.59;;;-8.14;100.00
26775;BME280;14362;51.902;7.626;2022-12-18T02:42:32;102298.41;;;-8.22;100.00
26775;BME280;14362;51.902;7.626;2022-12-18T02:46:36;102307.53;;;-8.23;100.00
26775;BME280;14362;51.902;7.626;2022-12-18T02:50:44;102306.72;;;-8.23;100.00
26775;BME280;14362;51.902;7.626;2022-12-18T02:54:55;102310.25;;;-8.15;100.00
26775;BME280;14362;51.902;7.626;2022-12-18T02:59:02;102319.53;;;-8.09;100.00
26775;BME280;14362;51.902;7.626;2022-12-18T03:03:11;102310.75;;;-8.19;100.00
26775;BME280;14362;51.902;7.626;2022-12-18T03:07:18;102306.34;;;-8.20;100.00
26775;BME280;14362;51.902;7.626;2022-12-18T03:11:21;102298.75;;;-8.25;100.00
26775;BME280;14362;51.902;7.626;2022-12-18T03:15:47;102291.63;;;-8.26;100.00
26775;BME280;14362;51.902;7.626;2022-12-18T03:19:51;102294.34;;;-8.34;100.00
26775;BME280;14362;51.902;7.626;2022-12-18T03:23:54;102300.22;;;-8.38;100.00
26775;BME280;14362;51.902;7.626;2022-12-18T03:27:58;102302.03;;;-8.55;100.00
26775;BME280;14362;51.902;7.626;2022-12-18T03:32:03;102315.44;;;-8.45;100.00
26775;BME280;14362;51.902;7.626;2022-12-18T03:36:06;102307.44;;;-8.55;100.00
26775;BME280;14362;51.902;7.626;2022-12-18T03:40:09;102318.06;;;-8.61;100.00
26775;BME280;14362;51.902;7.626;2022-12-18T03:44:13;102321.28;;;-8.58;100.00
26775;BME280;14362;51.902;7.626;2022-12-18T03:48:22;102310.84;;;-8.53;100.00
26775;BME280;14362;51.902;7.626;2022-12-18T03:52:32;102305.44;;;-8.45;100.00
26775;BME280;14362;51.902;7.626;2022-12-18T03:56:39;102309.34;;;-8.39;100.00
26775;BME280;14362;51.902;7.626;2022-12-18T04:00:42;102296.88;;;-8.40;100.00
26775;BME280;14362;51.902;7.626;2022-12-18T04:04:46;102302.41;;;-8.42;100.00
26775;BME280;14362;51.902;7.626;2022-12-18T04:08:49;102281.28;;;-8.38;100.00
26775;BME280;14362;51.902;7.626;2022-12-18T04:12:50;102285.19;;;-8.41;100.00
26775;BME280;14362;51.902;7.626;2022-12-18T04:16:51;102286.72;;;-8.38;100.00
26775;BME280;14362;51.902;7.626;2022-12-18T04:20:54;102292.63;;;-8.43;100.00
26775;BME280;14362;51.902;7.626;2022-12-18T04:24:56;102283.50;;;-8.50;100.00
26775;BME280;14362;51.902;7.626;2022-12-18T04:28:57;102278.09;;;-8.42;100.00
26775;BME280;14362;51.902;7.626;2022-12-18T04:32:58;102287.53;;;-8.46;100.00
26775;BME280;14362;51.902;7.626;2022-12-18T04:37:01;102277.72;;;-8.55;100.00
26775;BME280;14362;51.902;7.626;2022-12-18T04:41:03;102282.44;;;-8.49;100.00
26775;BME280;14362;51.902;7.626;2022-12-18T04:45:05;102281.81;;;-8.43;100.00
26775;BME280;14362;51.902;7.626;2022-12-18T04:49:07;102277.06;;;-8.41;100.00
26775;BME280;14362;51.902;7.626;2022-12-18T04:53:11;102271.84;;;-8.42;100.00
26775;BME280;14362;51.902;7.626;2022-12-18T04:57:13;102275.72;;;-8.45;100.00
26775;BME280;14362;51.902;7.626;2022-12-18T05:01:16;102282.13;;;-8.46;100.00
26775;BME280;14362;51.902;7.626;2022-12-18T05:05:18;102283.81;;;-8.53;100.00
26775;BME280;14362;51.902;7.626;2022-12-18T05:09:20;102285.47;;;-8.60;100.00
26775;BME280;14362;51.902;7.626;2022-12-18T05:13:22;102286.50;;;-8.53;100.00
26775;BME280;14362;51.902;7.626;2022-12-18T05:17:23;102279.59;;;-8.47;100.00
26775;BME280;14362;51.902;7.626;2022-12-18T05:21:25;102266.25;;;-8.41;100.00
26775;BME280;14362;51.902;7.626;2022-12-18T05:25:28;102266.09;;;-8.39;100.00
26775;BME280;14362;51.902;7.626;2022-12-18T05:29:29;102251.91;;;-8.41;100.00
26775;BME280;14362;51.902;7.626;2022-12-18T05:33:32;102272.72;;;-8.34;100.00
26775;BME280;14362;51.902;7.626;2022-12-18T05:37:34;102280.78;;;-8.42;100.00
26775;BME280;14362;51.902;7.626;2022-12-18T05:41:37;102285.19;;;-8.41;100.00
26775;BME280;14362;51.902;7.626;2022-12-18T05:45:39;102294.16;;;-8.40;100.00
26775;BME280;14362;51.902;7.626;2022-12-18T05:49:40;102278.78;;;-8.40;100.00
26775;BME280;14362;51.902;7.626;2022-12-18T05:53:42;102271.00;;;-8.43;100.00
26775;BME280;14362;51.902;7.626;2022-12-18T05:57:44;102274.38;;;-8.41;100.00
26775;BME280;14362;51.902;7.626;2022-12-18T06:01:46;102283.16;;;-8.39;100.00
26775;BME280;14362;51.902;7.626;2022-12-18T06:05:47;102285.19;;;-8.41;100.00
26775;BME280;14362;51.902;7.626;2022-12-18T06:09:49;102281.66;;;-8.33;100.00
26775;BME280;14362;51.902;7.626;2022-12-18T06:13:53;102299.22;;;-8.45;100.00
26775;BME280;14362;51.902;7.626;2022-12-18T06:17:55;102296.50;;;-8.45;100.00
26775;BME280;14362;51.902;7.626;2022-12-18T06:21:56;102312.53;;;-8.44;100.00
26775;BME280;14362;51.902;7.626;2022-12-18T06:26:03;102317.13;;;-8.44;100.00
26775;BME280;14362;51.902;7.626;2022-12-18T06:30:08;102318.00;;;-8.36;100.00
26775;BME280;14362;51.902;7.626;2022-12-18T06:34:10;102324.22;;;-8.35;100.00
26775;BME280;14362;51.902;7.626;2022-12-18T06:38:11;102318.81;;;-8.35;100.00
26775;BME280;14362;51.902;7.626;2022-12-18T06:42:12;102314.25;;;-8.43;100.00
26775;BME280;14362;51.902;7.626;2022-12-18T06:46:15;102306.50;;;-8.30;100.00
26775;BME280;14362;51.902;7.626;2022-12-18T06:50:17;102302.13;;;-8.31;100.00
26775;BME280;14362;51.902;7.626;2022-12-18T06:54:18;102309.53;;;-8.41;100.00
26775;BME280;14362;51.902;7.626;2022-12-18T06:58:20;102308.50;;;-8.40;100.00
26775;BME280;14362;51.902;7.626;2022-12-18T07:02:22;102317.13;;;-8.44;100.00
26775;BME280;14362;51.902;7.626;2022-12-18T07:06:25;102312.41;;;-8.42;100.00
26775;BME280;14362;51.902;7.626;2022-12-18T07:10:27;102303.59;;;-8.36;100.00
26775;BME280;14362;51.902;7.626;2022-12-18T07:14:28;102298.75;;;-8.25;100.00
26775;BME280;14362;51.902;7.626;2022-12-18T07:18:31;102303.31;;;-8.25;100.00
26775;BME280;14362;51.902;7.626;2022-12-18T07:22:32;102293.16;;;-8.15;100.00
26775;BME280;14362;51.902;7.626;2022-12-18T07:26:34;102286.94;;;-8.00;100.00
26775;BME280;14362;51.902;7.626;2022-12-18T07:30:36;102291.84;;;-7.88;100.00
26775;BME280;14362;51.902;7.626;2022-12-18T07:34:39;102294.06;;;-7.75;100.00
26775;BME280;14362;51.902;7.626;2022-12-18T07:38:41;102293.88;;;-7.74;100.00
26775;BME280;14362;51.902;7.626;2022-12-18T07:42:43;102292.19;;;-7.67;100.00
26775;BME280;14362;51.902;7.626;2022-12-18T07:46:44;102276.66;;;-7.65;100.00
26775;BME280;14362;51.902;7.626;2022-12-18T07:50:47;102275.78;;;-7.65;100.00
26775;BME280;14362;51.902;7.626;2022-12-18T07:54:48;102280.69;;;-7.61;100.00
26775;BME280;14362;51.902;7.626;2022-12-18T07:58:50;102281.22;;;-7.57;100.00
26775;BME280;14362;51.902;7.626;2022-12-18T08:02:51;102286.63;;;-7.57;100.00
26775;BME280;14362;51.902;7.626;2022-12-18T08:06:54;102286.94;;;-7.52;100.00
26775;BME280;14362;51.902;7.626;2022-12-18T08:10:56;102283.06;;;-7.50;100.00
26775;BME280;14362;51.902;7.626;2022-12-18T08:14:58;102281.19;;;-7.41;100.00
26775;BME280;14362;51.902;7.626;2022-12-18T08:18:59;102278.44;;;-7.33;100.00
26775;BME280;14362;51.902;7.626;2022-12-18T08:23:02;102290.97;;;-7.24;100.00
26775;BME280;14362;51.902;7.626;2022-12-18T08:27:03;102289.25;;;-7.09;100.00
26775;BME280;14362;51.902;7.626;2022-12-18T08:31:05;102270.41;;;-6.95;100.00
26775;BME280;14362;51.902;7.626;2022-12-18T08:35:08;102263.09;;;-6.87;100.00
26775;BME280;14362;51.902;7.626;2022-12-18T08:39:13;102259.31;;;-6.78;100.00
26775;BME280;14362;51.902;7.626;2022-12-18T08:43:14;102248.06;;;-6.59;100.00
26775;BME280;14362;51.902;7.626;2022-12-18T08:47:34;102229.81;;;-6.34;100.00
26775;BME280;14362;51.902;7.626;2022-12-18T08:51:35;102235.91;;;-6.32;100.00
26775;BME280;14362;51.902;7.626;2022-12-18T08:55:38;102235.66;;;-6.23;100.00
26775;BME280;14362;51.902;7.626;2022-12-18T08:59:39;102219.25;;;-6.07;100.00
26775;BME280;14362;51.902;7.626;2022-12-18T09:03:41;102230.13;;;-6.07;100.00
26775;BME280;14362;51.902;7.626;2022-12-18T09:07:42;102233.41;;;-5.97;100.00
26775;BME280;14362;51.902;7.626;2022-12-18T09:11:45;102226.06;;;-5.89;100.00
26775;BME280;14362;51.902;7.626;2022-12-18T09:15:49;102215.88;;;-5.87;100.00
26775;BME280;14362;51.902;7.626;2022-12-18T09:19:50;102209.44;;;-5.71;100.00
26775;BME280;14362;51.902;7.626;2022-12-18T09:23:54;102217.22;;;-5.68;100.00
26775;BME280;14362;51.902;7.626;2022-12-18T09:27:57;102239.25;;;-5.49;100.00
26775;BME280;14362;51.902;7.626;2022-12-18T09:31:58;102242.94;;;-5.42;100.00
26775;BME280;14362;51.902;7.626;2022-12-18T09:36:01;102250.91;;;-5.26;100.00
26775;BME280;14362;51.902;7.626;2022-12-18T09:40:04;102250.25;;;-5.28;100.00
26775;BME280;14362;51.902;7.626;2022-12-18T09:44:14;102241.38;;;-5.22;100.00
26775;BME280;14362;51.902;7.626;2022-12-18T09:48:22;102236.50;;;-5.12;100.00
26775;BME280;14362;51.902;7.626;2022-12-18T09:52:27;102229.00;;;-4.96;100.00
26775;BME280;14362;51.902;7.626;2022-12-18T09:56:35;102231.88;;;-4.83;100.00
26775;BME280;14362;51.902;7.626;2022-12-18T10:00:40;102217.63;;;-4.70;100.00
26775;BME280;14362;51.902;7.626;2022-12-18T10:04:43;102205.13;;;-4.50;100.00
26775;BME280;14362;51.902;7.626;2022-12-18T10:08:51;102199.16;;;-4.39;100.00
26775;BME280;14362;51.902;7.626;2022-12-18T10:13:01;102207.66;;;-4.28;100.00
26775;BME280;14362;51.902;7.626;2022-12-18T10:17:13;102200.50;;;-4.14;100.00
26775;BME280;14362;51.902;7.626;2022-12-18T10:21:21;102194.53;;;-4.04;100.00
26775;BME280;14362;51.902;7.626;2022-12-18T10:25:28;102179.53;;;-3.93;100.00
26775;BME280;14362;51.902;7.626;2022-12-18T10:29:32;102162.16;;;-3.92;100.00
26775;BME280;14362;51.902;7.626;2022-12-18T10:33:35;102154.25;;;-3.87;100.00
26775;BME280;14362;51.902;7.626;2022-12-18T10:38:00;102158.53;;;-3.78;100.00
26775;BME280;14362;51.902;7.626;2022-12-18T10:42:10;102142.28;;;-3.65;100.00
26775;BME280;14362;51.902;7.626;2022-12-18T10:46:15;102142.78;;;-3.55;100.00
26775;BME280;14362;51.902;7.626;2022-12-18T10:50:24;102143.28;;;-3.45;100.00
26775;BME280;14362;51.902;7.626;2022-12-18T10:54:33;102136.50;;;-3.22;100.00
26775;BME280;14362;51.902;7.626;2022-12-18T10:58:37;102111.59;;;-3.12;100.00
26775;BME280;14362;51.902;7.626;2022-12-18T11:02:40;102106.63;;;-3.03;100.00
26775;BME280;14362;51.902;7.626;2022-12-18T11:06:54;102094.50;;;-2.87;100.00
26775;BME280;14362;51.902;7.626;2022-12-18T11:10:56;102106.06;;;-2.79;100.00
26775;BME280;14362;51.902;7.626;2022-12-18T11:14:58;102091.38;;;-2.78;100.00
26775;BME280;14362;51.902;7.626;2022-12-18T11:19:12;102107.97;;;-2.73;100.00
26775;BME280;14362;51.902;7.626;2022-12-18T11:23:19;102099.00;;;-2.60;100.00
26775;BME280;14362;51.902;7.626;2022-12-18T11:27:22;102083.28;;;-2.52;100.00
26775;BME280;14362;51.902;7.626;2022-12-18T11:31:25;102080.34;;;-2.44;100.00
26775;BME280;14362;51.902;7.626;2022-12-18T11:35:36;102078.69;;;-2.38;100.00
26775;BME280;14362;51.902;7.626;2022-12-18T11:39:44;102068.59;;;-2.31;100.00
26775;BME280;14362;51.902;7.626;2022-12-18T11:43:50;102064.19;;;-2.26;100.00
26775;BME280;14362;51.902;7.626;2022-12-18T11:47:57;102062.94;;;-2.23;100.00
26775;BME280;14362;51.902;7.626;2022-12-18T11:52:04;102069.88;;;-2.21;100.00
26775;BME280;14362;51.902;7.626;2022-12-18T11:56:25;102060.00;;;-2.09;100.00
26775;BME280;14362;51.902;7.626;2022-12-18T12:00:28;102048.22;;;-2.09;100.00
26775;BME280;14362;51.902;7.626;2022-12-18T12:04:39;102034.56;;;-2.03;100.00
26775;BME280;14362;51.902;7.626;2022-12-18T12:08:55;102031.66;;;-2.08;100.00
26775;BME280;14362;51.902;7.626;2022-12-18T12:13:11;102024.25;;;-1.95;100.00
26775;BME280;14362;51.902;7.626;2022-12-18T12:17:24;102029.31;;;-1.92;100.00
26775;BME280;14362;51.902;7.626;2022-12-18T12:21:36;102023.03;;;-1.92;100.00
26775;BME280;14362;51.902;7.626;2022-12-18T12:25:44;102020.47;;;-1.87;100.00
26775;BME280;14362;51.902;7.626;2022-12-18T12:29:57;102014.78;;;-1.79;100.00
26775;BME280;14362;51.902;7.626;2022-12-18T12:34:08;102011.84;;;-1.78;100.00
26775;BME280;14362;51.902;7.626;2022-12-18T12:38:15;101992.94;;;-1.79;100.00
26775;BME280;14362;51.902;7.626;2022-12-18T12:42:25;101980.72;;;-1.77;100.00
26775;BME280;14362;51.902;7.626;2022-12-18T12:46:52;101962.41;;;-1.70;100.00
26775;BME280;14362;51.902;7.626;2022-12-18T12:50:56;101961.56;;;-1.64;100.00
26775;BME280;14362;51.902;7.626;2022-12-18T12:55:00;101951.66;;;-1.58;100.00
26775;BME280;14362;51.902;7.626;2022-12-18T12:59:10;101951.25;;;-1.62;100.00
26775;BME280;14362;51.902;7.626;2022-12-18T13:03:24;101957.94;;;-1.58;100.00
26775;BME280;14362;51.902;7.626;2022-12-18T13:07:37;101951.59;;;-1.45;100.00
26775;BME280;14362;51.902;7.626;2022-12-18T13:11:42;101948.44;;;-1.42;100.00
26775;BME280;14362;51.902;7.626;2022-12-18T13:16:05;101947.19;;;-1.46;100.00
26775;BME280;14362;51.902;7.626;2022-12-18T13:20:12;101924.44;;;-1.40;100.00
26775;BME280;14362;51.902;7.626;2022-12-18T13:24:23;101932.66;;;-1.40;100.00
26775;BME280;14362;51.902;7.626;2022-12-18T13:28:50;101934.72;;;-1.36;100.00
26775;BME280;14362;51.902;7.626;2022-12-18T13:33:36;101928.81;;;-1.33;100.00
26775;BME280;14362;51.902;7.626;2022-12-18T13:37:51;101918.75;;;-1.32;100.00
26775;BME280;14362;51.902;7.626;2022-12-18T13:42:21;101921.00;;;-1.23;100.00
26775;BME280;14362;51.902;7.626;2022-12-18T13:46:46;101925.81;;;-1.18;100.00
26775;BME280;14362;51.902;7.626;2022-12-18T13:50:49;101909.22;;;-1.23;100.00
26775;BME280;14362;51.902;7.626;2022-12-18T13:54:55;101907.97;;;-1.27;100.00
26775;BME280;14362;51.902;7.626;2022-12-18T13:59:13;101906.84;;;-1.13;100.00
26775;BME280;14362;51.902;7.626;2022-12-18T14:03:20;101916.94;;;-1.14;100.00
26775;BME280;14362;51.902;7.626;2022-12-18T14:07:24;101912.56;;;-1.21;100.00
26775;BME280;14362;51.902;7.626;2022-12-18T14:11:26;101904.78;;;-1.24;100.00
26775;BME280;14362;51.902;7.626;2022-12-18T14:15:31;101903.06;;;-1.19;100.00
26775;BME280;14362;51.902;7.626;2022-12-18T14:19:35;101889.09;;;-1.04;100.00
26775;BME280;14362;51.902;7.626;2022-12-18T14:23:38;101881.38;;;-1.14;100.00
26775;BME280;14362;51.902;7.626;2022-12-18T14:27:42;101872.56;;;-1.16;100.00
26775;BME280;14362;51.902;7.626;2022-12-18T14:31:44;101866.06;;;-1.21;100.00
26775;BME280;14362;51.902;7.626;2022-12-18T14:35:55;101854.22;;;-1.09;100.00
26775;BME280;14362;51.902;7.626;2022-12-18T14:39:58;101858.88;;;-0.92;100.00
26775;BME280;14362;51.902;7.626;2022-12-18T14:44:06;101852.03;;;-1.01;100.00
26775;BME280;14362;51.902;7.626;2022-12-18T14:48:09;101830.91;;;-0.94;100.00
26775;BME280;14362;51.902;7.626;2022-12-18T14:52:23;101823.38;;;-0.98;100.00
26775;BME280;14362;51.902;7.626;2022-12-18T14:56:29;101821.63;;;-0.86;100.00
26775;BME280;14362;51.902;7.626;2022-12-18T15:00:30;101820.38;;;-0.90;100.00
26775;BME280;14362;51.902;7.626;2022-12-18T15:04:34;101828.59;;;-0.90;100.00
26775;BME280;14362;51.902;7.626;2022-12-18T15:08:37;101821.38;;;-0.85;100.00
26775;BME280;14362;51.902;7.626;2022-12-18T15:12:40;101810.44;;;-0.85;100.00
26775;BME280;14362;51.902;7.626;2022-12-18T15:16:42;101797.56;;;-0.84;100.00
26775;BME280;14362;51.902;7.626;2022-12-18T15:20:44;101785.47;;;-0.70;100.00
26775;BME280;14362;51.902;7.626;2022-12-18T15:24:49;101785.97;;;-0.80;100.00
26775;BME280;14362;51.902;7.626;2022-12-18T15:28:52;101786.41;;;-0.83;100.00
26775;BME280;14362;51.902;7.626;2022-12-18T15:33:16;101775.75;;;-0.66;100.00
26775;BME280;14362;51.902;7.626;2022-12-18T15:37:23;101770.16;;;-0.78;100.00
26775;BME280;14362;51.902;7.626;2022-12-18T15:41:26;101775.16;;;-0.75;100.00
26775;BME280;14362;51.902;7.626;2022-12-18T15:45:28;101770.91;;;-0.71;100.00
26775;BME280;14362;51.902;7.626;2022-12-18T15:49:29;101769.84;;;-0.70;100.00
26775;BME280;14362;51.902;7.626;2022-12-18T15:53:32;101767.53;;;-0.66;100.00
26775;BME280;14362;51.902;7.626;2022-12-18T15:57:35;101759.53;;;-0.68;100.00
26775;BME280;14362;51.902;7.626;2022-12-18T16:01:36;101758.16;;;-0.59;100.00
26775;BME280;14362;51.902;7.626;2022-12-18T16:05:37;101758.91;;;-0.70;100.00
26775;BME280;14362;51.902;7.626;2022-12-18T16:09:39;101752.28;;;-0.62;100.00
26775;BME280;14362;51.902;7.626;2022-12-18T16:13:42;101747.50;;;-0.67;100.00
26775;BME280;14362;51.902;7.626;2022-12-18T16:17:44;101741.06;;;-0.54;100.00
26775;BME280;14362;51.902;7.626;2022-12-18T16:21:46;101729.03;;;-0.53;100.00
26775;BME280;14362;51.902;7.626;2022-12-18T16:25:48;101717.09;;;-0.59;100.00
26775;BME280;14362;51.902;7.626;2022-12-18T16:29:51;101735.75;;;-0.49;100.00
26775;BME280;14362;51.902;7.626;2022-12-18T16:34:11;101738.00;;;-0.64;100.00
26775;BME280;14362;51.902;7.626;2022-12-18T16:38:12;101743.53;;;-0.71;100.00
26775;BME280;14362;51.902;7.626;2022-12-18T16:42:16;101728.41;;;-0.73;100.00
26775;BME280;14362;51.902;7.626;2022-12-18T16:46:20;101740.88;;;-0.77;100.00
26775;BME280;14362;51.902;7.626;2022-12-18T16:50:21;101733.72;;;-0.78;100.00
26775;BME280;14362;51.902;7.626;2022-12-18T16:54:23;101728.41;;;-0.73;100.00
26775;BME280;14362;51.902;7.626;2022-12-18T16:58:24;101732.47;;;-0.76;100.00
26775;BME280;14362;51.902;7.626;2022-12-18T17:02:27;101744.47;;;-0.77;100.00
26775;BME280;14362;51.902;7.626;2022-12-18T17:06:31;101737.09;;;-0.76;100.00
26775;BME280;14362;51.902;7.626;2022-12-18T17:10:34;101733.97;;;-0.80;100.00
26775;BME280;14362;51.902;7.626;2022-12-18T17:14:36;101729.75;;;-0.82;100.00
26775;BME280;14362;51.902;7.626;2022-12-18T17:18:39;101716.31;;;-0.84;100.00
26775;BME280;14362;51.902;7.626;2022-12-18T17:22:40;101702.19;;;-0.81;100.00
26775;BME280;14362;51.902;7.626;2022-12-18T17:26:41;101698.84;;;-0.83;100.00
26775;BME280;14362;51.902;7.626;2022-12-18T17:30:43;101705.38;;;-0.84;100.00
26775;BME280;14362;51.902;7.626;2022-12-18T17:34:46;101705.38;;;-0.84;100.00
26775;BME280;14362;51.902;7.626;2022-12-18T17:38:49;101715.25;;;-0.83;100.00
26775;BME280;14362;51.902;7.626;2022-12-18T17:42:51;101702.03;;;-0.86;100.00
26775;BME280;14362;51.902;7.626;2022-12-18T17:46:52;101696.78;;;-0.87;100.00
26775;BME280;14362;51.902;7.626;2022-12-18T17:50:59;101704.16;;;-0.88;100.00
26775;BME280;14362;51.902;7.626;2022-12-18T17:55:01;101702.03;;;-0.86;100.00
26775;BME280;14362;51.902;7.626;2022-12-18T17:59:02;101700.34;;;-0.87;100.00
26775;BME280;14362;51.902;7.626;2022-12-18T18:03:03;101701.34;;;-0.81;100.00
26775;BME280;14362;51.902;7.626;2022-12-18T18:07:06;101695.88;;;-0.81;100.00
26775;BME280;14362;51.902;7.626;2022-12-18T18:11:10;101700.50;;;-0.82;100.00
26775;BME280;14362;51.902;7.626;2022-12-18T18:15:30;101695.03;;;-0.82;100.00
26775;BME280;14362;51.902;7.626;2022-12-18T18:19:32;101695.88;;;-0.81;100.00
26775;BME280;14362;51.902;7.626;2022-12-18T18:23:35;101689.56;;;-0.82;100.00
26775;BME280;14362;51.902;7.626;2022-12-18T18:27:36;101676.72;;;-0.81;100.00
26775;BME280;14362;51.902;7.626;2022-12-18T18:31:38;101682.19;;;-0.81;100.00
26775;BME280;14362;51.902;7.626;2022-12-18T18:35:41;101678.38;;;-0.80;100.00
26775;BME280;14362;51.902;7.626;2022-12-18T18:39:43;101669.09;;;-0.79;100.00
26775;BME280;14362;51.902;7.626;2022-12-18T18:43:45;101672.00;;;-0.74;100.00
26775;BME280;14362;51.902;7.626;2022-12-18T18:47:46;101672.00;;;-0.74;100.00
26775;BME280;14362;51.902;7.626;2022-12-18T18:51:48;101681.53;;;-0.77;100.00
26775;BME280;14362;51.902;7.626;2022-12-18T18:55:51;101690.25;;;-0.68;100.00
26775;BME280;14362;51.902;7.626;2022-12-18T18:59:53;101692.59;;;-0.72;100.00
26775;BME280;14362;51.902;7.626;2022-12-18T19:03:54;101696.41;;;-0.73;100.00
26775;BME280;14362;51.902;7.626;2022-12-18T19:07:55;101695.56;;;-0.73;100.00
26775;BME280;14362;51.902;7.626;2022-12-18T19:11:58;101707.13;;;-0.71;100.00
26775;BME280;14362;51.902;7.626;2022-12-18T19:16:17;101720.22;;;-0.73;100.00
26775;BME280;14362;51.902;7.626;2022-12-18T19:20:19;101710.09;;;-0.73;100.00
26775;BME280;14362;51.902;7.626;2022-12-18T19:24:21;101702.47;;;-0.71;100.00
26775;BME280;14362;51.902;7.626;2022-12-18T19:28:23;101693.81;;;-0.68;100.00
26775;BME280;14362;51.902;7.626;2022-12-18T19:32:27;101699.66;;;-0.64;100.00
26775;BME280;14362;51.902;7.626;2022-12-18T19:36:30;101708.66;;;-0.57;100.00
26775;BME280;14362;51.902;7.626;2022-12-18T19:40:31;101706.59;;;-0.62;100.00
26775;BME280;14362;51.902;7.626;2022-12-18T19:44:34;101702.56;;;-0.59;100.00
26775;BME280;14362;51.902;7.626;2022-12-18T19:48:35;101699.47;;;-0.63;100.00
26775;BME280;14362;51.902;7.626;2022-12-18T19:52:37;101696.25;;;-0.60;100.00
26775;BME280;14362;51.902;7.626;2022-12-18T19:56:38;101690.78;;;-0.60;100.00
26775;BME280;14362;51.902;7.626;2022-12-18T20:00:41;101694.06;;;-0.51;100.00
26775;BME280;14362;51.902;7.626;2022-12-18T20:04:42;101691.59;;;-0.41;100.00
26775;BME280;14362;51.902;7.626;2022-12-18T20:08:44;101700.13;;;-0.31;100.00
26775;BME280;14362;51.902;7.626;2022-12-18T20:12:46;101692.81;;;-0.37;100.00
26775;BME280;14362;51.902;7.626;2022-12-18T20:16:49;101702.94;;;-0.38;100.00
26775;BME280;14362;51.902;7.626;2022-12-18T20:20:51;101688.31;;;-0.32;100.00
26775;BME280;14362;51.902;7.626;2022-12-18T20:24:52;101695.72;;;-0.32;100.00
26775;BME280;14362;51.902;7.626;2022-12-18T20:28:54;101674.88;;;-0.33;100.00
26775;BME280;14362;51.902;7.626;2022-12-18T20:32:57;101673.72;;;-0.26;100.00
26775;BME280;14362;51.902;7.626;2022-12-18T20:36:58;101668.94;;;-0.30;100.00
26775;BME280;14362;51.902;7.626;2022-12-18T20:41:00;101669.28;;;-0.27;100.00
26775;BME280;14362;51.902;7.626;2022-12-18T20:45:03;101666.72;;;-0.22;100.00
26775;BME280;14362;51.902;7.626;2022-12-18T20:49:06;101675.13;;;-0.23;100.00
26775;BME280;14362;51.902;7.626;2022-12-18T20:53:07;101677.06;;;-0.24;100.00
26775;BME280;14362;51.902;7.626;2022-12-18T20:57:09;101679.53;;;-0.22;100.00
26775;BME280;14362;51.902;7.626;2022-12-18T21:01:12;101680.75;;;-0.18;100.00
26775;BME280;14362;51.902;7.626;2022-12-18T21:05:15;101678.19;;;-0.13;100.00